Time;durP1;ratioP1;P1;durP2;ratioP2;P2;SDS_P1;SDS_P2;PMS_P1;PMS_P2;Temp;Humidity;BMP_temperature;BMP_pressure;BME280_temperature;BME280_humidity;BME280_pressure;Samples;Min_cycle;Max_cycle;Signal;HPM_P1;HPM_P2
2022/05/01 00:00:58;;;;;;;15.15;10.88;;;10.00;77.30;;;;;;4980367;28;20041;-77
2022/05/01 00:03:36;;;;;;;19.92;9.38;;;10.00;78.00;;;;;;4994041;28;20030;-77
2022/05/01 00:06:04;;;;;;;19.20;11.40;;;9.90;78.70;;;;;;4995503;28;20370;-77
2022/05/01 00:08:33;;;;;;;12.68;9.63;;;9.90;80.20;;;;;;4995591;28;20121;-77
2022/05/01 00:10:58;;;;;;;13.13;9.32;;;9.90;84.60;;;;;;4984909;28;20177;-77
2022/05/01 00:13:24;;;;;;;16.58;10.13;;;9.90;82.80;;;;;;4997008;28;20130;-77
2022/05/01 00:15:50;;;;;;;13.20;9.48;;;9.90;81.80;;;;;;4992834;28;20042;-77
2022/05/01 00:18:16;;;;;;;15.45;9.38;;;9.80;82.00;;;;;;4995663;28;20037;-77
2022/05/01 00:20:41;;;;;;;14.05;10.10;;;9.80;81.90;;;;;;4980228;28;20030;-77
2022/05/01 00:23:08;;;;;;;18.70;11.38;;;9.80;85.30;;;;;;4995823;28;20121;-77
2022/05/01 00:25:34;;;;;;;16.08;9.68;;;9.80;81.70;;;;;;5003180;28;20128;-77
2022/05/01 00:27:59;;;;;;;15.63;9.93;;;9.70;83.80;;;;;;4994396;28;20516;-76
2022/05/01 00:30:27;;;;;;;13.90;9.55;;;9.70;83.80;;;;;;4980399;28;20045;-77
2022/05/01 00:38:21;;;;;;;15.45;10.13;;;9.60;85.80;;;;;;4993838;28;20092;-77
2022/05/01 00:40:47;;;;;;;14.88;9.88;;;9.60;86.70;;;;;;4992958;28;20533;-77
2022/05/01 00:43:13;;;;;;;18.88;9.55;;;9.70;86.20;;;;;;4981691;28;20149;-76
2022/05/01 00:45:38;;;;;;;12.80;9.13;;;9.80;86.10;;;;;;4992290;28;20117;-76
2022/05/01 00:48:04;;;;;;;16.17;10.30;;;9.70;83.70;;;;;;4994021;28;20417;-76
2022/05/01 00:50:30;;;;;;;15.48;10.13;;;9.70;83.60;;;;;;4993588;28;20031;-76
2022/05/01 00:52:55;;;;;;;15.45;9.77;;;9.60;87.70;;;;;;4977114;28;20037;-76
2022/05/01 00:55:21;;;;;;;19.30;9.85;;;9.60;89.20;;;;;;4990704;28;20061;-77
2022/05/01 00:57:47;;;;;;;13.57;9.77;;;9.50;89.50;;;;;;5010683;28;20026;-77
2022/05/01 01:00:13;;;;;;;11.80;9.35;;;9.60;88.90;;;;;;4985208;28;20034;-77
2022/05/01 01:02:39;;;;;;;12.70;10.05;;;9.50;89.20;;;;;;4995712;28;20127;-77
2022/05/01 01:05:05;;;;;;;14.32;9.77;;;9.50;89.80;;;;;;4976167;28;20057;-76
2022/05/01 01:07:31;;;;;;;17.85;9.77;;;9.40;90.00;;;;;;4993444;28;20030;-76
2022/05/01 01:09:57;;;;;;;14.52;9.32;;;9.50;91.80;;;;;;4980501;28;20037;-77
2022/05/01 01:15:09;;;;;;;16.45;9.52;;;9.50;92.80;;;;;;4995683;28;20040;-76
2022/05/01 01:17:40;;;;;;;13.38;9.65;;;9.60;92.90;;;;;;4993061;28;20035;-76
2022/05/01 01:20:15;;;;;;;15.68;9.60;;;9.50;91.30;;;;;;5000913;28;20117;-76
2022/05/01 01:22:42;;;;;;;16.95;10.48;;;9.50;92.60;;;;;;4998208;28;20520;-76
2022/05/01 01:25:11;;;;;;;13.27;9.90;;;9.50;94.00;;;;;;4996765;28;20030;-76
2022/05/01 01:27:39;;;;;;;14.75;10.13;;;9.50;94.20;;;;;;4997330;28;20484;-76
2022/05/01 01:32:50;;;;;;;13.35;10.25;;;9.50;96.20;;;;;;4996395;28;20076;-76
2022/05/01 01:35:16;;;;;;;20.75;10.80;;;9.50;94.40;;;;;;4991817;28;20042;-76
2022/05/01 01:37:44;;;;;;;12.70;10.05;;;9.50;94.10;;;;;;4991089;28;20951;-76
2022/05/01 01:40:10;;;;;;;15.65;10.00;;;9.50;93.70;;;;;;4976059;28;20084;-76
2022/05/01 01:42:36;;;;;;;13.05;9.93;;;9.50;94.80;;;;;;4991367;28;20137;-76
2022/05/01 01:45:02;;;;;;;16.25;10.30;;;9.40;93.80;;;;;;4989919;28;20490;-76
2022/05/01 01:47:27;;;;;;;15.20;11.10;;;9.40;97.60;;;;;;4993903;28;20089;-76
2022/05/01 01:49:53;;;;;;;19.10;10.60;;;9.40;94.50;;;;;;4994305;28;20026;-76
2022/05/01 01:52:19;;;;;;;11.75;9.40;;;9.40;94.20;;;;;;4957426;28;20450;-76
2022/05/01 01:54:45;;;;;;;12.63;9.32;;;9.40;96.00;;;;;;4993506;28;20041;-76
2022/05/01 01:57:11;;;;;;;17.95;9.98;;;9.40;95.10;;;;;;4990486;28;20124;-76
2022/05/01 01:59:36;;;;;;;12.98;9.40;;;9.40;94.60;;;;;;4983728;28;20117;-78
2022/05/01 02:02:03;;;;;;;13.32;9.43;;;9.40;97.40;;;;;;4975790;28;20022;-78
2022/05/01 02:04:28;;;;;;;17.48;9.88;;;9.40;96.50;;;;;;4992232;28;20045;-78
2022/05/01 02:06:54;;;;;;;11.43;8.85;;;9.30;94.60;;;;;;4991021;28;20029;-78
2022/05/01 02:09:19;;;;;;;12.20;9.55;;;9.30;94.40;;;;;;4990006;28;20034;-78
2022/05/01 02:11:45;;;;;;;13.48;8.98;;;9.30;94.70;;;;;;4994754;28;20040;-78
2022/05/01 02:14:11;;;;;;;18.98;9.77;;;9.30;97.50;;;;;;4985960;28;20477;-78
2022/05/01 02:16:37;;;;;;;17.08;10.50;;;9.30;97.30;;;;;;4991632;28;20422;-78
2022/05/01 02:19:02;;;;;;;13.88;9.23;;;9.20;95.90;;;;;;4994288;28;20691;-78
2022/05/01 02:21:34;;;;;;;13.07;9.95;;;9.20;94.70;;;;;;4993753;28;20063;-78
2022/05/01 02:23:59;;;;;;;16.65;9.20;;;9.20;95.60;;;;;;4993460;28;20022;-78
2022/05/01 02:26:25;;;;;;;14.80;7.78;;;9.10;93.10;;;;;;4975848;28;20478;-78
2022/05/01 02:28:50;;;;;;;9.48;6.00;;;9.10;92.50;;;;;;5008415;28;20057;-78
2022/05/01 02:31:17;;;;;;;8.27;6.10;;;9.10;91.80;;;;;;5005091;28;20056;-78
2022/05/01 02:33:43;;;;;;;6.32;5.38;;;9.00;91.50;;;;;;5009622;28;20034;-78
2022/05/01 02:36:09;;;;;;;13.32;9.23;;;9.00;91.30;;;;;;4993385;28;20054;-78
2022/05/01 02:38:34;;;;;;;15.40;10.30;;;8.90;91.20;;;;;;4994850;28;20543;-78
2022/05/01 02:41:01;;;;;;;17.08;10.32;;;8.80;91.40;;;;;;5006110;28;20066;-78
2022/05/01 02:43:27;;;;;;;13.45;10.75;;;8.70;92.00;;;;;;4992646;28;20042;-77
2022/05/01 02:45:52;;;;;;;12.00;9.95;;;8.60;92.20;;;;;;4997624;28;20479;-78
2022/05/01 02:48:18;;;;;;;16.33;11.32;;;8.50;91.30;;;;;;4986402;28;20034;-77
2022/05/01 02:50:43;;;;;;;16.75;10.50;;;8.50;91.20;;;;;;4993166;28;20034;-78
2022/05/01 02:53:09;;;;;;;20.02;11.82;;;8.40;91.40;;;;;;4992182;28;20129;-78
2022/05/01 02:55:35;;;;;;;16.45;11.70;;;8.30;91.90;;;;;;4993983;28;21804;-78
2022/05/01 02:58:00;;;;;;;15.75;11.43;;;8.20;91.40;;;;;;4994348;28;20034;-76
2022/05/01 03:00:26;;;;;;;16.77;11.57;;;8.10;91.60;;;;;;4994413;28;20050;-76
2022/05/01 03:02:55;;;;;;;16.63;12.85;;;8.00;91.70;;;;;;4977651;28;20040;-76
2022/05/01 03:05:21;;;;;;;17.65;12.98;;;7.90;91.70;;;;;;4989702;28;20058;-76
2022/05/01 03:07:48;;;;;;;21.85;12.65;;;7.90;91.80;;;;;;4991144;28;20493;-76
2022/05/01 03:10:13;;;;;;;22.25;12.05;;;7.90;93.20;;;;;;4973248;28;20023;-76
2022/05/01 03:12:39;;;;;;;17.48;11.30;;;7.80;92.20;;;;;;4979613;28;20092;-76
2022/05/01 03:15:06;;;;;;;18.52;12.10;;;7.80;92.00;;;;;;4992256;28;20100;-76
2022/05/01 03:22:10;;;;;;;20.20;12.60;;;7.80;91.60;;;;;;4991206;28;20528;-76
2022/05/01 03:23:01;;;;;;;19.67;12.80;;;7.60;93.10;;;;;;4990678;28;20033;-76
2022/05/01 03:25:27;;;;;;;19.30;12.95;;;7.60;92.60;;;;;;4978456;28;20038;-76
2022/05/01 03:27:53;;;;;;;19.63;13.50;;;7.60;94.30;;;;;;4991708;28;20030;-76
2022/05/01 03:30:19;;;;;;;21.42;12.80;;;7.50;93.80;;;;;;4994184;28;20097;-76
2022/05/01 03:32:45;;;;;;;17.45;12.63;;;7.40;93.10;;;;;;4989841;28;20627;-76
2022/05/01 03:35:10;;;;;;;17.33;13.07;;;7.40;93.10;;;;;;4979748;28;20054;-76
2022/05/01 03:37:36;;;;;;;15.68;12.40;;;7.30;93.20;;;;;;4999243;28;20144;-76
2022/05/01 03:40:03;;;;;;;21.80;14.82;;;7.10;94.10;;;;;;4994783;28;20478;-76
2022/05/01 03:42:29;;;;;;;18.92;12.32;;;7.20;94.00;;;;;;4994922;28;20033;-76
2022/05/01 03:44:55;;;;;;;16.55;11.75;;;7.20;93.40;;;;;;4996563;28;20402;-76
2022/05/01 03:47:20;;;;;;;15.90;11.80;;;7.20;93.00;;;;;;4997502;28;20033;-76
2022/05/01 03:49:48;;;;;;;18.75;12.30;;;7.20;92.70;;;;;;4985560;28;20033;-76
2022/05/01 03:52:14;;;;;;;14.38;11.35;;;7.20;92.50;;;;;;4999077;28;20056;-76
2022/05/01 03:54:39;;;;;;;18.83;12.77;;;7.20;92.70;;;;;;5000783;28;20394;-76
2022/05/01 03:57:05;;;;;;;18.10;12.25;;;7.20;92.80;;;;;;4994903;28;20026;-76
2022/05/01 03:59:31;;;;;;;17.27;11.85;;;7.20;93.80;;;;;;4978463;28;20041;-76
2022/05/01 04:01:56;;;;;;;15.02;11.38;;;7.10;92.70;;;;;;4991254;28;20808;-76
2022/05/01 04:04:22;;;;;;;15.35;11.35;;;6.90;92.50;;;;;;4993869;28;20220;-76
2022/05/01 04:06:47;;;;;;;14.60;11.45;;;6.90;92.40;;;;;;4994531;28;20034;-76
2022/05/01 04:09:13;;;;;;;20.92;11.75;;;7.00;92.60;;;;;;4995256;28;20083;-76
2022/05/01 04:11:38;;;;;;;15.18;11.00;;;7.00;92.60;;;;;;5011297;28;20520;-76
2022/05/01 04:14:06;;;;;;;18.05;12.60;;;7.00;92.40;;;;;;4994627;28;20030;-76
2022/05/01 04:16:32;;;;;;;18.45;12.77;;;6.90;92.50;;;;;;4997369;28;20045;-76
2022/05/01 04:18:57;;;;;;;17.23;11.50;;;6.80;93.20;;;;;;4989914;28;20031;-76
2022/05/01 04:21:23;;;;;;;18.95;13.10;;;6.70;94.80;;;;;;4993369;28;20498;-76
2022/05/01 04:23:49;;;;;;;22.20;12.90;;;6.70;95.10;;;;;;4996966;28;20037;-76
2022/05/01 04:26:14;;;;;;;15.27;11.85;;;6.60;94.10;;;;;;4996487;28;20026;-76
2022/05/01 04:29:36;;;;;;;19.35;13.10;;;6.60;94.50;;;;;;4979489;28;20033;-76
2022/05/01 04:31:27;;;;;;;18.55;12.15;;;6.60;94.80;;;;;;4992757;28;20033;-76
2022/05/01 04:33:53;;;;;;;15.60;11.65;;;6.60;93.70;;;;;;4993650;28;20065;-76
2022/05/01 04:36:18;;;;;;;20.25;12.63;;;6.50;93.60;;;;;;4984426;28;20514;-76
2022/05/01 04:38:44;;;;;;;21.42;12.82;;;6.50;93.80;;;;;;4993525;28;20072;-76
2022/05/01 04:41:09;;;;;;;16.50;11.70;;;6.50;93.40;;;;;;4984149;28;20076;-76
2022/05/01 04:43:36;;;;;;;11.57;8.60;;;6.50;93.70;;;;;;4994515;28;20092;-76
2022/05/01 04:46:02;;;;;;;11.57;8.93;;;6.60;93.60;;;;;;4995409;28;20320;-76
2022/05/01 04:48:27;;;;;;;8.95;7.78;;;6.60;93.50;;;;;;4991438;28;20142;-76
2022/05/01 04:50:53;;;;;;;14.63;11.25;;;6.70;93.70;;;;;;4977887;28;20125;-76
2022/05/01 04:53:20;;;;;;;18.40;12.10;;;6.70;93.80;;;;;;4994343;28;20062;-76
2022/05/01 04:55:46;;;;;;;24.52;14.27;;;6.80;93.80;;;;;;4998125;28;20045;-76
2022/05/01 04:58:14;;;;;;;18.65;12.85;;;6.90;93.90;;;;;;4993255;28;20516;-76
2022/05/01 05:00:40;;;;;;;21.17;13.20;;;7.00;94.30;;;;;;4995061;28;20033;-76
2022/05/01 05:03:05;;;;;;;17.92;11.63;;;7.10;94.50;;;;;;4992372;28;20038;-76
2022/05/01 05:05:31;;;;;;;17.73;12.30;;;7.20;94.50;;;;;;5011254;28;20398;-76
2022/05/01 05:09:53;;;;;;;16.83;11.98;;;7.40;94.60;;;;;;4991061;28;20490;-76
2022/05/01 05:10:45;;;;;;;16.92;12.20;;;7.50;94.60;;;;;;4998237;28;20041;-76
2022/05/01 05:13:11;;;;;;;17.02;13.27;;;7.70;94.80;;;;;;4982783;28;20038;-76
2022/05/01 05:15:36;;;;;;;19.13;12.20;;;7.90;94.60;;;;;;4992827;28;20034;-76
2022/05/01 05:18:02;;;;;;;14.88;10.88;;;8.00;94.30;;;;;;4995274;28;20030;-76
2022/05/01 05:20:27;;;;;;;15.77;10.68;;;8.20;94.20;;;;;;4992157;28;20034;-76
2022/05/01 05:22:53;;;;;;;13.80;8.90;;;8.40;94.50;;;;;;4976288;28;20030;-76
2022/05/01 05:25:20;;;;;;;10.60;7.53;;;8.70;94.20;;;;;;4981085;28;20061;-76
2022/05/01 05:27:46;;;;;;;9.60;8.05;;;8.90;92.60;;;;;;5010662;28;20057;-76
2022/05/01 05:30:12;;;;;;;19.00;11.00;;;9.10;93.50;;;;;;4981980;28;20031;-76
2022/05/01 05:32:38;;;;;;;18.45;12.88;;;9.30;94.60;;;;;;4987522;28;20560;-76
2022/05/01 05:35:04;;;;;;;16.05;11.63;;;9.50;95.60;;;;;;4991583;28;20038;-76
2022/05/01 05:37:31;;;;;;;15.25;11.60;;;9.80;96.60;;;;;;5010420;28;20498;-76
2022/05/01 05:39:56;;;;;;;15.30;10.95;;;10.10;97.80;;;;;;4976354;28;20452;-76
2022/05/01 05:42:22;;;;;;;16.13;10.90;;;10.40;98.30;;;;;;4992381;28;20038;-76
2022/05/01 05:44:47;;;;;;;14.88;10.00;;;10.60;99.20;;;;;;4975093;28;20034;-76
2022/05/01 05:47:13;;;;;;;17.02;10.40;;;10.70;98.60;;;;;;4977917;28;20042;-76
2022/05/01 05:49:38;;;;;;;11.32;9.93;;;10.90;98.40;;;;;;4993417;28;20089;-76
2022/05/01 05:52:04;;;;;;;15.00;10.52;;;11.10;98.70;;;;;;4993219;28;20038;-76
2022/05/01 05:54:30;;;;;;;16.20;11.20;;;11.20;98.40;;;;;;4992077;28;20034;-76
2022/05/01 05:56:55;;;;;;;12.13;8.85;;;11.40;97.20;;;;;;4983853;28;20128;-76
2022/05/01 05:59:21;;;;;;;14.18;10.18;;;11.50;97.30;;;;;;4995889;28;20374;-76
2022/05/01 06:01:46;;;;;;;12.60;9.38;;;11.70;97.00;;;;;;4995043;28;20045;-76
2022/05/01 06:04:12;;;;;;;14.18;10.55;;;11.80;96.60;;;;;;5008446;28;20316;-76
2022/05/01 06:06:37;;;;;;;13.52;9.98;;;11.90;97.10;;;;;;4992795;28;20080;-76
2022/05/01 06:09:03;;;;;;;12.75;9.15;;;12.00;97.00;;;;;;4991312;28;20029;-76
2022/05/01 06:11:28;;;;;;;14.93;9.95;;;12.00;97.00;;;;;;4977610;28;20042;-76
2022/05/01 06:13:54;;;;;;;17.08;10.05;;;12.00;97.20;;;;;;4991860;28;20401;-76
2022/05/01 06:16:20;;;;;;;12.75;11.15;;;11.90;96.30;;;;;;4993579;28;20518;-76
2022/05/01 06:18:46;;;;;;;17.27;10.73;;;11.90;96.10;;;;;;4995427;28;20026;-75
2022/05/01 06:21:11;;;;;;;13.23;8.48;;;11.90;95.60;;;;;;4993246;28;20433;-75
2022/05/01 06:23:37;;;;;;;13.20;10.48;;;11.80;95.00;;;;;;4981485;28;20034;-76
2022/05/01 06:26:04;;;;;;;13.02;10.77;;;11.70;95.10;;;;;;4991473;28;20141;-76
2022/05/01 06:28:30;;;;;;;16.38;9.82;;;11.70;95.40;;;;;;4975171;28;20647;-76
2022/05/01 06:30:55;;;;;;;16.08;10.90;;;11.60;95.10;;;;;;4996224;28;20038;-76
2022/05/01 06:33:22;;;;;;;14.35;11.27;;;11.60;95.60;;;;;;4994517;28;20044;-76
2022/05/01 06:35:52;;;;;;;15.60;9.77;;;11.50;95.40;;;;;;4994686;28;20396;-76
2022/05/01 06:38:18;;;;;;;14.15;10.20;;;11.50;95.30;;;;;;4978707;28;20088;-76
2022/05/01 06:40:44;;;;;;;13.93;9.73;;;11.50;95.40;;;;;;4983921;28;20474;-75
2022/05/01 06:43:13;;;;;;;15.57;10.65;;;11.50;94.80;;;;;;4992795;28;20381;-75
2022/05/01 06:45:38;;;;;;;13.30;9.23;;;11.50;95.10;;;;;;4992080;28;20058;-76
2022/05/01 06:48:04;;;;;;;13.48;9.57;;;11.50;94.70;;;;;;4979357;28;20038;-76
2022/05/01 06:50:30;;;;;;;10.40;8.80;;;11.60;94.90;;;;;;4963315;28;20026;-75
2022/05/01 06:52:56;;;;;;;13.20;10.20;;;11.60;95.20;;;;;;4980052;28;20061;-75
2022/05/01 06:55:25;;;;;;;11.95;8.73;;;11.70;95.60;;;;;;4975891;28;20122;-76
2022/05/01 06:57:53;;;;;;;14.50;9.27;;;11.80;95.20;;;;;;4991630;28;20770;-75
2022/05/01 07:00:19;;;;;;;13.15;8.65;;;12.00;95.30;;;;;;4992541;28;20401;-76
2022/05/01 07:02:49;;;;;;;13.05;10.35;;;12.10;95.90;;;;;;4994559;28;20034;-76
2022/05/01 07:05:14;;;;;;;12.63;9.32;;;12.30;95.90;;;;;;5000680;28;20121;-76
2022/05/01 07:07:40;;;;;;;12.40;9.35;;;12.50;95.90;;;;;;4998393;28;20562;-76
2022/05/01 07:10:06;;;;;;;13.32;9.52;;;12.60;95.90;;;;;;5000735;28;20038;-76
2022/05/01 07:12:32;;;;;;;11.98;9.35;;;12.80;95.90;;;;;;4994669;28;20113;-76
2022/05/01 07:14:57;;;;;;;15.50;8.82;;;13.00;95.80;;;;;;4998280;28;20177;-76
2022/05/01 07:17:23;;;;;;;10.85;8.30;;;13.10;95.60;;;;;;5001221;28;20041;-77
2022/05/01 07:19:49;;;;;;;11.23;8.82;;;13.20;95.20;;;;;;5011736;28;20034;-77
2022/05/01 07:22:15;;;;;;;12.30;9.85;;;13.40;95.60;;;;;;4980382;28;20026;-76
2022/05/01 07:24:41;;;;;;;14.45;8.93;;;13.50;95.00;;;;;;4983013;28;20030;-76
2022/05/01 07:27:07;;;;;;;14.02;10.10;;;13.60;95.20;;;;;;4979465;28;20053;-76
2022/05/01 07:29:32;;;;;;;10.75;8.82;;;13.80;95.10;;;;;;4976930;28;20620;-76
2022/05/01 07:31:58;;;;;;;11.98;9.05;;;13.90;94.90;;;;;;5001702;28;20029;-76
2022/05/01 07:34:23;;;;;;;14.85;8.68;;;14.10;94.60;;;;;;5000722;28;20034;-77
2022/05/01 07:36:49;;;;;;;10.38;8.00;;;14.30;94.40;;;;;;5004446;28;20026;-77
2022/05/01 07:39:14;;;;;;;10.38;8.07;;;14.40;94.20;;;;;;4994132;28;20383;-77
2022/05/01 07:41:41;;;;;;;10.20;7.13;;;14.60;93.60;;;;;;4979512;28;20359;-77
2022/05/01 07:44:08;;;;;;;7.85;5.70;;;14.70;93.40;;;;;;4993904;28;20026;-77
2022/05/01 07:46:35;;;;;;;11.85;7.85;;;14.90;92.20;;;;;;4997988;28;20490;-77
2022/05/01 07:49:01;;;;;;;10.77;7.75;;;14.90;93.20;;;;;;4982193;28;20787;-77
2022/05/01 07:51:26;;;;;;;10.60;7.47;;;15.30;93.20;;;;;;4982260;28;20060;-77
2022/05/01 07:53:53;;;;;;;9.57;8.18;;;15.50;93.10;;;;;;4982449;28;20053;-77
2022/05/01 07:56:19;;;;;;;11.18;8.25;;;16.00;91.10;;;;;;4987290;28;20120;-77
2022/05/01 07:58:44;;;;;;;9.18;7.07;;;16.00;92.70;;;;;;4998009;28;20125;-77
2022/05/01 08:01:10;;;;;;;13.38;8.63;;;16.20;92.70;;;;;;4993796;28;20080;-77
2022/05/01 08:06:22;;;;;;;11.75;8.30;;;16.80;91.60;;;;;;4996978;28;20096;-77
2022/05/01 08:08:47;;;;;;;13.10;8.13;;;17.00;91.40;;;;;;4996890;28;20112;-77
2022/05/01 08:11:13;;;;;;;11.45;7.93;;;17.30;90.20;;;;;;4990847;28;20038;-77
2022/05/01 08:13:39;;;;;;;10.25;7.68;;;17.50;90.10;;;;;;4978605;28;20042;-77
2022/05/01 08:16:04;;;;;;;10.55;8.30;;;17.80;89.20;;;;;;4997400;28;20509;-77
2022/05/01 08:21:16;;;;;;;9.73;7.75;;;18.30;89.80;;;;;;5003926;28;20033;-78
2022/05/01 08:23:43;;;;;;;13.57;8.90;;;18.70;87.70;;;;;;5000287;28;20463;-77
2022/05/01 08:26:10;;;;;;;9.75;6.30;;;18.90;86.20;;;;;;4991505;28;20045;-77
2022/05/01 08:28:37;;;;;;;10.27;7.63;;;19.00;83.40;;;;;;4980160;28;20512;-77
2022/05/01 08:31:03;;;;;;;11.43;9.13;;;19.30;85.50;;;;;;5011473;28;20749;-78
2022/05/01 08:33:28;;;;;;;14.45;9.60;;;19.80;81.50;;;;;;4995337;28;20081;-78
2022/05/01 08:35:54;;;;;;;10.65;8.32;;;20.00;79.60;;;;;;4997879;28;20045;-78
2022/05/01 08:38:20;;;;;;;12.65;8.50;;;20.20;80.20;;;;;;4979754;28;20177;-78
2022/05/01 08:40:47;;;;;;;10.90;8.48;;;20.30;79.80;;;;;;4997708;28;20035;-78
2022/05/01 08:43:14;;;;;;;12.23;8.32;;;20.60;78.70;;;;;;4977352;28;20035;-78
2022/05/01 08:46:00;;;;;;;13.90;8.43;;;20.90;76.20;;;;;;4991769;28;20512;-78
2022/05/01 08:48:41;;;;;;;10.40;7.03;;;21.10;71.10;;;;;;4996106;28;20061;-78
2022/05/01 08:51:06;;;;;;;12.70;7.38;;;21.10;71.40;;;;;;4995193;28;20069;-78
2022/05/01 08:53:32;;;;;;;9.23;8.30;;;21.10;72.40;;;;;;4997124;28;20038;-78
2022/05/01 08:56:00;;;;;;;9.77;8.10;;;21.50;71.00;;;;;;4979753;28;20088;-78
2022/05/01 08:58:26;;;;;;;8.93;7.80;;;21.70;69.40;;;;;;4995128;28;20034;-78
2022/05/01 09:00:52;;;;;;;15.63;9.32;;;21.80;67.20;;;;;;4994515;28;20406;-78
2022/05/01 09:03:18;;;;;;;11.63;7.97;;;21.60;66.90;;;;;;4995773;28;20045;-79
2022/05/01 09:05:44;;;;;;;9.05;7.70;;;21.90;66.40;;;;;;4998854;28;20042;-79
2022/05/01 09:08:10;;;;;;;10.00;7.55;;;22.00;65.50;;;;;;4980796;28;20022;-78
2022/05/01 09:10:35;;;;;;;8.00;6.80;;;21.90;65.40;;;;;;4981896;28;20069;-79
2022/05/01 09:13:01;;;;;;;9.43;6.55;;;;;;;;;;4978584;28;20041;-79
2022/05/01 09:15:40;;;;;;;12.52;8.35;;;22.30;64.40;;;;;;5012966;28;20030;-79
2022/05/01 09:18:08;;;;;;;10.80;8.05;;;22.50;63.20;;;;;;4978097;28;20117;-79
2022/05/01 09:20:36;;;;;;;7.38;6.13;;;22.60;61.80;;;;;;4977605;28;20046;-79
2022/05/01 09:23:02;;;;;;;8.63;6.30;;;22.60;61.60;;;;;;4966682;28;20111;-79
2022/05/01 09:25:28;;;;;;;9.82;7.70;;;22.70;61.60;;;;;;4980036;28;20030;-79
2022/05/01 09:27:57;;;;;;;9.68;7.43;;;22.90;61.50;;;;;;4980560;28;20031;-80
2022/05/01 09:30:33;;;;;;;8.18;4.90;;;23.10;60.10;;;;;;4995137;28;20037;-79
2022/05/01 09:32:59;;;;;;;;;;;23.10;61.00;;;;;;4997620;28;20034;-80
2022/05/01 09:35:31;;;;;;;13.45;7.63;;;23.30;58.20;;;;;;4994657;28;19910;-80
2022/05/01 09:38:24;;;;;;;8.50;6.55;;;23.40;57.80;;;;;;5003158;28;20418;-80
2022/05/01 09:40:55;;;;;;;8.02;6.72;;;23.50;57.60;;;;;;4983997;28;20065;-80
2022/05/01 09:43:42;;;;;;;7.85;4.75;;;23.40;56.30;;;;;;4996435;28;20030;-81
2022/05/01 09:46:18;;;;;;;10.05;6.47;;;23.40;57.70;;;;;;4978354;28;20041;-80
2022/05/01 09:49:00;;;;;;;9.55;5.80;;;23.40;56.30;;;;;;4986321;28;20037;-80
2022/05/01 09:51:32;;;;;;;7.45;4.95;;;23.40;56.10;;;;;;4980085;28;20038;-80
2022/05/01 09:53:59;;;;;;;10.07;5.32;;;23.40;57.00;;;;;;4996802;28;20038;-80
2022/05/01 09:56:24;;;;;;;7.03;5.80;;;23.50;56.20;;;;;;4986972;28;20044;-81
2022/05/01 09:59:02;;;;;;;7.22;5.80;;;23.60;55.70;;;;;;4979706;28;20038;-81
2022/05/01 10:01:28;;;;;;;7.85;6.18;;;23.60;53.90;;;;;;4983559;28;20034;-81
2022/05/01 10:03:54;;;;;;;9.30;6.25;;;23.60;54.20;;;;;;4977262;28;20196;-80
2022/05/01 10:06:20;;;;;;;10.10;5.90;;;23.60;54.30;;;;;;4992526;28;20124;-80
2022/05/01 10:08:46;;;;;;;10.80;5.95;;;23.60;54.20;;;;;;4998206;28;20041;-81
2022/05/01 10:11:14;;;;;;;8.15;5.93;;;23.50;53.40;;;;;;4996773;28;20462;-81
2022/05/01 10:13:40;;;;;;;7.22;6.13;;;23.60;53.40;;;;;;4993337;28;20030;-81
2022/05/01 10:16:08;;;;;;;6.55;5.75;;;23.60;53.20;;;;;;4979868;28;20030;-81
2022/05/01 10:18:33;;;;;;;5.82;3.50;;;23.70;52.60;;;;;;4978573;28;20528;-81
2022/05/01 10:20:59;;;;;;;10.00;5.72;;;23.50;52.90;;;;;;4980084;28;20039;-81
2022/05/01 10:23:25;;;;;;;7.15;5.72;;;23.40;52.00;;;;;;4991420;28;20046;-82
2022/05/01 10:25:57;;;;;;;6.82;5.05;;;23.60;52.40;;;;;;4984062;28;20109;-82
2022/05/01 10:28:50;;;;;;;9.65;6.10;;;23.60;52.10;;;;;;4980221;28;20036;-82
2022/05/01 10:35:12;;;;;;;8.32;5.78;;;23.70;52.40;;;;;;4993803;28;20101;-81
2022/05/01 10:38:05;;;;;;;8.95;5.60;;;23.80;51.40;;;;;;4999340;28;20022;-81
2022/05/01 10:40:39;;;;;;;7.22;6.03;;;24.00;52.00;;;;;;5013794;28;20132;-82
2022/05/01 10:43:21;;;;;;;6.45;5.82;;;24.20;51.70;;;;;;4984529;28;20038;-82
2022/05/01 10:45:47;;;;;;;8.20;4.88;;;24.40;50.70;;;;;;4993910;28;20032;-82
2022/05/01 10:48:15;;;;;;;8.20;5.75;;;24.60;50.80;;;;;;4979009;28;20497;-82
2022/05/01 10:50:41;;;;;;;9.32;6.05;;;25.00;50.80;;;;;;5000064;28;20436;-82
2022/05/01 10:53:12;;;;;;;9.57;6.15;;;25.00;49.60;;;;;;4989909;28;20042;-83
2022/05/01 10:56:14;;;;;;;9.55;5.28;;;25.20;49.60;;;;;;4988583;28;20041;-83
2022/05/01 10:58:40;;;;;;;7.45;5.40;;;25.20;50.20;;;;;;4998918;28;20034;-83
2022/05/01 11:01:06;;;;;;;4.35;3.42;;;25.40;49.40;;;;;;4997741;28;20030;-83
2022/05/01 11:03:32;;;;;;;5.88;3.83;;;25.30;49.70;;;;;;4984722;28;20080;-83
2022/05/01 11:06:04;;;;;;;5.78;3.85;;;25.20;50.80;;;;;;3936143;28;10000630;-84
2022/05/01 11:08:37;;;;;;;5.97;4.57;;;25.10;51.20;;;;;;4996419;28;20034;-83
2022/05/01 11:11:05;;;;;;;5.13;4.25;;;25.70;50.00;;;;;;4979028;28;20579;-84
2022/05/01 11:13:38;;;;;;;6.90;5.38;;;25.90;48.00;;;;;;4977070;28;20457;-84
2022/05/01 11:16:04;;;;;;;9.68;6.07;;;26.10;47.80;;;;;;4989936;28;20494;-83
2022/05/01 11:18:39;;;;;;;9.20;6.38;;;26.40;47.90;;;;;;4993982;28;20410;-84
2022/05/01 11:21:20;;;;;;;4.43;3.50;;;;;;;;;;5003989;28;20030;-84
2022/05/01 11:23:57;;;;;;;5.55;4.78;;;26.90;45.60;;;;;;5007227;28;20702;-84
2022/05/01 11:26:26;;;;;;;5.50;4.95;;;27.00;47.40;;;;;;5011649;28;20070;-84
2022/05/01 11:28:55;;;;;;;3.92;3.55;;;27.20;46.10;;;;;;4998865;28;20027;-84
2022/05/01 11:31:36;;;;;;;5.78;4.15;;;27.10;48.00;;;;;;4989435;28;20085;-83
2022/05/01 11:34:24;;;;;;;5.18;4.10;;;27.00;48.10;;;;;;4997067;28;20026;-83
2022/05/01 11:37:01;;;;;;;6.00;5.18;;;27.20;45.90;;;;;;4991991;28;20045;-82
2022/05/01 11:39:45;;;;;;;8.00;6.78;;;27.60;45.60;;;;;;4975897;28;20039;-82
2022/05/01 11:42:26;;;;;;;7.05;6.05;;;28.00;43.80;;;;;;4991841;28;20121;-81
2022/05/01 11:44:52;;;;;;;7.13;6.38;;;28.10;42.80;;;;;;4997279;28;20034;-81
2022/05/01 11:47:22;;;;;;;7.72;6.40;;;28.30;42.90;;;;;;4999790;28;20073;-81
2022/05/01 11:49:47;;;;;;;7.57;5.63;;;28.30;42.60;;;;;;4994210;28;20486;-80
2022/05/01 11:52:13;;;;;;;5.35;4.28;;;28.40;41.80;;;;;;4981643;28;20042;-80
2022/05/01 11:54:50;;;;;;;6.72;4.68;;;28.10;43.00;;;;;;4995076;28;20022;-80
2022/05/01 12:02:58;;;;;;;11.52;6.53;;;28.20;41.50;;;;;;5010157;28;20393;-79
2022/05/01 12:05:24;;;;;;;4.82;4.25;;;28.20;41.00;;;;;;4982207;28;20030;-80
2022/05/01 12:07:54;;;;;;;10.55;7.45;;;28.20;41.60;;;;;;4999148;28;20036;-80
2022/05/01 12:10:19;;;;;;;9.80;5.90;;;28.40;40.50;;;;;;4981395;28;20118;-80
2022/05/01 12:12:45;;;;;;;8.27;5.07;;;28.40;41.60;;;;;;4996107;28;20549;-79
2022/05/01 12:15:11;;;;;;;4.50;4.10;;;28.30;42.00;;;;;;4995470;28;20485;-78
2022/05/01 12:17:40;;;;;;;6.88;6.18;;;28.20;41.80;;;;;;4994062;28;20057;-78
2022/05/01 12:20:08;;;;;;;7.55;6.80;;;28.20;41.00;;;;;;4994486;28;20074;-78
2022/05/01 12:22:39;;;;;;;6.82;6.20;;;28.40;39.30;;;;;;5013192;28;20076;-78
2022/05/01 12:25:10;;;;;;;7.43;6.45;;;28.50;40.70;;;;;;4994509;28;20045;-78
2022/05/01 12:27:40;;;;;;;8.38;6.72;;;28.60;39.50;;;;;;4978551;28;20108;-78
2022/05/01 12:30:06;;;;;;;9.68;6.78;;;28.30;38.60;;;;;;4975748;28;20058;-78
2022/05/01 12:32:32;;;;;;;8.05;4.85;;;28.10;39.30;;;;;;4995128;28;20962;-78
2022/05/01 12:35:00;;;;;;;7.35;4.63;;;28.00;40.70;;;;;;5009228;28;20030;-78
2022/05/01 12:37:29;;;;;;;6.18;4.07;;;28.10;40.80;;;;;;4996223;28;20038;-78
2022/05/01 12:40:09;;;;;;;4.65;3.40;;;27.90;41.00;;;;;;4983852;28;20023;-78
2022/05/01 12:45:43;;;;;;;9.75;6.68;;;27.50;41.90;;;;;;4996622;28;20043;-78
2022/05/01 12:48:10;;;;;;;6.78;5.28;;;27.70;40.80;;;;;;4985742;28;20038;-78
2022/05/01 12:50:38;;;;;;;4.47;3.83;;;27.90;40.20;;;;;;4994078;28;21855;-78
2022/05/01 12:53:26;;;;;;;10.95;6.47;;;27.70;41.60;;;;;;4976714;28;20042;-78
2022/05/01 12:55:53;;;;;;;7.97;5.65;;;27.70;40.10;;;;;;4993613;28;20038;-78
2022/05/01 12:58:32;;;;;;;11.85;6.93;;;28.10;40.40;;;;;;4991690;28;20517;-78
2022/05/01 13:00:58;;;;;;;6.70;6.00;;;28.20;39.30;;;;;;4993720;28;20038;-78
2022/05/01 13:03:25;;;;;;;9.15;6.10;;;28.20;38.80;;;;;;4979166;28;20058;-78
2022/05/01 13:06:04;;;;;;;6.43;5.32;;;28.10;39.30;;;;;;4996002;28;20030;-78
2022/05/01 13:08:35;;;;;;;6.22;5.22;;;28.10;39.60;;;;;;4980454;28;20060;-78
2022/05/01 13:11:19;;;;;;;10.13;7.10;;;28.20;39.10;;;;;;4997403;28;20458;-78
2022/05/01 13:13:53;;;;;;;9.63;6.78;;;28.20;39.10;;;;;;4996358;28;20042;-78
2022/05/01 13:16:25;;;;;;;8.07;7.22;;;28.00;39.10;;;;;;4993677;28;20493;-78